Hlavní strana
METAR-TAF:

METAR-TAF

Letiště :

Letiště Stuttgart

Stuttgart, Německo

zeměpisná šířka: 48-41N, zeměpisná délka: 009-13E, výška: 396 m

Aktuální stav počasí

Zpráva byla vytvořena před 34 minutami, v 01:50 UTC
Západojihozápadní vítr 3 kt, proměnlivý mezi jihojihozápadním a západním
Teplota 19°C
Vlhkost vzduchu 88%
Tlak 1013 hPa
Viditelnost 10 km a více
Skoro jasno ve výšce 4400 ft

METAR: EDDS 160150Z AUTO 24003KT 200V260 9999 FEW044 19/17 Q1013

Čas: 04:24 (02:24 UTC)

Předpověď počasí

Zpráva byla vytvořena před 3 hodinami a 24 minutami, v 23:00 UTC
Předpověď platná od 16 v 00 UTC do 16 v 24 UTC
Jihozápadní vítr 5 kt
Viditelnost 10 km a více
Žádná oblačnost pod 1500 m, nevyskytují se cumulonimby.
Dočasný
od 16 v 12 UTC do 16 v 16 UTC
Západní vítr 10 kt

TAF: EDDS 152300Z 1600/1624 22005KT CAVOK TEMPO 1612/1616 26010KT

Stav a předpovědi počasí z více než 4 000 letišť (zprávy METAR a TAF).

Červené a žluté tečky na mapě představují dostupné meteorologické stanice.

Když kurzor umístíte na tečku, zobrazí se název stanice.

Pak kliknutím zobrazíte stav a předpověď počasí.

Chcete-li změnit mapu, kliknutím na zelené tlačítko se znaménkem +mapu přiblížíte, kliknutím na zelené tlačítko se znaménkem – mapu oddálíte a kliknutím na zelené šipky přejdete na sousední mapy.


METAR-TAF: